Time;durP1;ratioP1;P1;durP2;ratioP2;P2;SDS_P1;SDS_P2;PMS_P1;PMS_P2;Temp;Humidity;BMP_temperature;BMP_pressure;BME280_temperature;BME280_humidity;BME280_pressure;Samples;Min_cycle;Max_cycle;Signal;HPM_P1;HPM_P2
2021/04/24 00:00:51;;;;;;;15.37;8.47;;;10.40;99.90;;;;;;5068050;28;20169;-68
2021/04/24 00:03:17;;;;;;;17.77;9.07;;;10.30;99.90;;;;;;5067782;28;20657;-68
2021/04/24 00:05:44;;;;;;;15.03;8.53;;;10.30;99.90;;;;;;5065406;28;20165;-68
2021/04/24 00:08:12;;;;;;;15.10;7.53;;;10.30;99.90;;;;;;5067956;28;20165;-68
2021/04/24 00:10:40;;;;;;;18.73;8.27;;;10.30;99.90;;;;;;5067896;28;20189;-68
2021/04/24 00:13:07;;;;;;;19.27;8.43;;;10.20;99.90;;;;;;5067892;28;20157;-68
2021/04/24 00:15:35;;;;;;;17.53;9.00;;;10.20;99.90;;;;;;5065231;28;20404;-68
2021/04/24 00:18:00;;;;;;;17.83;9.43;;;10.10;99.90;;;;;;5067169;28;20165;-68
2021/04/24 00:20:27;;;;;;;12.53;7.90;;;10.10;99.90;;;;;;5067729;28;20172;-67
2021/04/24 00:22:53;;;;;;;13.80;8.10;;;10.10;99.90;;;;;;5049959;28;20196;-68
2021/04/24 00:25:20;;;;;;;21.30;8.20;;;10.00;99.90;;;;;;5065231;28;20161;-68
2021/04/24 00:27:46;;;;;;;16.67;8.10;;;10.00;99.90;;;;;;5067736;28;20165;-68
2021/04/24 00:30:13;;;;;;;15.10;8.00;;;9.90;99.90;;;;;;5067005;28;20270;-68
2021/04/24 00:32:39;;;;;;;17.47;8.40;;;9.90;99.90;;;;;;5066516;28;20181;-68
2021/04/24 00:35:06;;;;;;;15.07;8.30;;;9.80;99.90;;;;;;5048743;28;20188;-67
2021/04/24 00:37:33;;;;;;;19.63;8.53;;;9.80;99.90;;;;;;5065878;28;20161;-68
2021/04/24 00:39:58;;;;;;;13.57;8.60;;;9.80;99.90;;;;;;5067298;28;20254;-68
2021/04/24 00:42:24;;;;;;;14.90;8.60;;;9.80;99.90;;;;;;5067403;28;20165;-68
2021/04/24 00:44:53;;;;;;;15.57;8.60;;;9.80;99.90;;;;;;5067346;28;20161;-68
2021/04/24 00:47:20;;;;;;;15.90;8.30;;;9.70;99.90;;;;;;5063834;28;20176;-67
2021/04/24 00:49:46;;;;;;;17.70;8.53;;;9.70;99.90;;;;;;5066838;28;20157;-68
2021/04/24 00:52:12;;;;;;;14.97;8.77;;;9.70;99.90;;;;;;5066879;28;20700;-68
2021/04/24 00:54:38;;;;;;;15.93;9.37;;;9.70;99.90;;;;;;5067088;28;20192;-68
2021/04/24 00:57:04;;;;;;;13.53;9.00;;;9.60;99.90;;;;;;5064365;28;20171;-68
2021/04/24 00:59:30;;;;;;;13.93;8.50;;;9.60;99.90;;;;;;5066987;28;20641;-68
2021/04/24 01:01:56;;;;;;;20.33;9.30;;;9.60;99.90;;;;;;5066741;28;20180;-68
2021/04/24 01:04:22;;;;;;;18.57;9.57;;;9.50;99.90;;;;;;5049113;28;20181;-68
2021/04/24 01:06:48;;;;;;;16.47;9.27;;;9.40;99.90;;;;;;5064231;28;20168;-68
2021/04/24 01:09:14;;;;;;;19.53;9.13;;;9.30;99.90;;;;;;5066846;28;20547;-68
2021/04/24 01:11:40;;;;;;;18.10;9.53;;;9.30;99.90;;;;;;5066622;28;20196;-68
2021/04/24 01:14:06;;;;;;;16.37;9.70;;;9.30;99.90;;;;;;5066696;28;20161;-68
2021/04/24 01:16:31;;;;;;;21.73;10.30;;;9.30;99.90;;;;;;5063987;28;20649;-68
2021/04/24 01:18:57;;;;;;;19.77;8.97;;;9.30;99.90;;;;;;5065963;28;20177;-68
2021/04/24 01:21:25;;;;;;;16.43;9.27;;;9.30;99.90;;;;;;5066581;28;20180;-68
2021/04/24 01:23:51;;;;;;;17.97;10.37;;;9.30;99.90;;;;;;5066725;28;20233;-68
2021/04/24 01:26:17;;;;;;;22.80;9.13;;;9.20;99.90;;;;;;5063777;28;20757;-69
2021/04/24 01:28:43;;;;;;;14.53;8.10;;;9.10;99.90;;;;;;5066454;28;20172;-68
2021/04/24 01:31:09;;;;;;;13.70;7.67;;;9.10;99.90;;;;;;5066064;28;20220;-68
2021/04/24 01:33:34;;;;;;;12.83;8.23;;;9.00;99.90;;;;;;5048293;28;20172;-68
2021/04/24 01:36:00;;;;;;;19.17;8.73;;;9.10;99.90;;;;;;5063838;28;20168;-68
2021/04/24 01:38:27;;;;;;;16.63;9.63;;;9.10;99.90;;;;;;5048501;28;20626;-68
2021/04/24 01:40:52;;;;;;;20.00;9.53;;;9.00;99.90;;;;;;5065531;28;20172;-69
2021/04/24 01:43:18;;;;;;;19.40;8.67;;;9.00;99.90;;;;;;5066221;28;20164;-68
2021/04/24 01:45:44;;;;;;;13.93;8.10;;;9.00;99.90;;;;;;5063647;28;20184;-68
2021/04/24 01:48:10;;;;;;;20.93;10.20;;;9.00;99.90;;;;;;5065803;28;20172;-68
2021/04/24 01:50:39;;;;;;;21.63;9.53;;;9.00;99.90;;;;;;5048069;28;20192;-68
2021/04/24 01:53:06;;;;;;;14.67;8.77;;;9.00;99.90;;;;;;5066051;28;20157;-68
2021/04/24 01:55:35;;;;;;;20.90;8.90;;;9.00;99.90;;;;;;5063445;28;20335;-68
2021/04/24 01:58:05;;;;;;;15.23;9.00;;;8.90;99.90;;;;;;5065851;28;20167;-68
2021/04/24 02:00:37;;;;;;;15.20;8.63;;;8.90;99.90;;;;;;5065877;28;20191;-68
2021/04/24 02:03:07;;;;;;;18.77;8.83;;;8.90;99.90;;;;;;5065537;28;20612;-68
2021/04/24 02:05:33;;;;;;;21.53;8.40;;;9.00;99.90;;;;;;5063479;28;20411;-67
2021/04/24 02:08:05;;;;;;;14.83;8.80;;;8.90;99.90;;;;;;5065709;28;20306;-67
2021/04/24 02:10:32;;;;;;;18.93;9.43;;;8.90;99.90;;;;;;5047719;28;20196;-67
2021/04/24 02:13:00;;;;;;;18.77;9.13;;;8.90;99.90;;;;;;5065627;28;20187;-68
2021/04/24 02:15:27;;;;;;;18.67;9.47;;;8.90;99.90;;;;;;5063083;28;20437;-68
2021/04/24 02:17:53;;;;;;;14.63;8.73;;;8.80;99.90;;;;;;5065301;28;20729;-68
2021/04/24 02:20:19;;;;;;;15.57;9.13;;;8.70;99.90;;;;;;5065505;28;20168;-68
2021/04/24 02:22:44;;;;;;;16.20;8.80;;;8.70;99.90;;;;;;5047638;28;20169;-68
2021/04/24 02:25:14;;;;;;;20.50;9.67;;;8.80;99.90;;;;;;5063996;28;20252;-67
2021/04/24 02:27:40;;;;;;;19.73;8.77;;;8.80;99.90;;;;;;5065200;28;20171;-67
2021/04/24 02:30:12;;;;;;;18.00;8.57;;;8.80;99.90;;;;;;5065405;28;20239;-67
2021/04/24 02:32:38;;;;;;;21.07;9.67;;;8.60;99.90;;;;;;5065288;28;20164;-68
2021/04/24 02:35:06;;;;;;;20.90;9.40;;;8.60;99.90;;;;;;5064771;28;20618;-68
2021/04/24 02:37:32;;;;;;;20.00;8.67;;;8.60;99.90;;;;;;5064109;28;20166;-68
2021/04/24 02:39:58;;;;;;;15.90;9.30;;;8.60;99.90;;;;;;5065481;28;20253;-68
2021/04/24 02:42:26;;;;;;;11.30;8.53;;;8.60;99.90;;;;;;5065408;28;20202;-68
2021/04/24 02:44:57;;;;;;;23.87;9.30;;;8.50;99.90;;;;;;5065236;28;20169;-67
2021/04/24 02:47:23;;;;;;;15.93;9.07;;;8.50;99.90;;;;;;5062448;28;20164;-68
2021/04/24 02:49:49;;;;;;;28.23;8.97;;;8.40;99.90;;;;;;5065518;28;20172;-68
2021/04/24 02:52:14;;;;;;;15.47;8.40;;;8.40;99.90;;;;;;5066022;28;20196;-68
2021/04/24 02:54:40;;;;;;;14.97;8.77;;;8.40;99.90;;;;;;5069437;28;20267;-68
2021/04/24 02:57:06;;;;;;;16.80;9.50;;;8.40;99.90;;;;;;5066695;28;20618;-68
2021/04/24 02:59:32;;;;;;;16.73;9.53;;;8.40;99.90;;;;;;5069440;28;20168;-68
2021/04/24 03:01:58;;;;;;;15.50;9.17;;;8.40;99.90;;;;;;5069011;28;20179;-68
2021/04/24 03:04:24;;;;;;;17.13;9.27;;;8.40;99.90;;;;;;5069109;28;20168;-68
2021/04/24 03:06:50;;;;;;;15.60;9.30;;;8.30;99.90;;;;;;5066600;28;20167;-68
2021/04/24 03:09:15;;;;;;;24.40;9.43;;;8.30;99.90;;;;;;5069059;28;20529;-68
2021/04/24 03:11:42;;;;;;;15.83;8.63;;;8.30;99.90;;;;;;5050974;28;20212;-68
2021/04/24 03:14:08;;;;;;;19.03;9.67;;;8.20;99.90;;;;;;5068842;28;20674;-69
2021/04/24 03:16:35;;;;;;;17.63;9.33;;;8.10;99.90;;;;;;5066433;28;20157;-68
2021/04/24 03:19:02;;;;;;;25.63;10.43;;;8.10;99.90;;;;;;5050443;28;20172;-68
2021/04/24 03:21:28;;;;;;;16.63;9.33;;;8.10;99.90;;;;;;5068883;28;20185;-68
2021/04/24 03:23:54;;;;;;;14.33;9.00;;;8.00;99.90;;;;;;5068991;28;20160;-68
2021/04/24 03:26:21;;;;;;;19.67;9.83;;;8.00;99.90;;;;;;5066015;28;20211;-68
2021/04/24 03:28:47;;;;;;;20.77;8.77;;;8.10;99.90;;;;;;5068848;28;20164;-68
2021/04/24 03:31:13;;;;;;;20.97;9.17;;;8.00;99.90;;;;;;5068254;28;20246;-68
2021/04/24 03:33:40;;;;;;;17.47;9.50;;;8.00;99.90;;;;;;5068542;28;20164;-67
2021/04/24 03:36:06;;;;;;;22.20;11.00;;;7.90;99.90;;;;;;5065975;28;20161;-68
2021/04/24 03:38:33;;;;;;;21.57;11.17;;;7.90;99.90;;;;;;5068512;28;20157;-68
2021/04/24 03:40:58;;;;;;;20.87;10.60;;;7.90;99.90;;;;;;5068337;28;20165;-68
2021/04/24 03:43:24;;;;;;;17.03;10.67;;;7.80;99.90;;;;;;5068704;28;20187;-68
2021/04/24 03:45:49;;;;;;;15.97;10.67;;;7.90;99.90;;;;;;5065799;28;20669;-68
2021/04/24 03:48:15;;;;;;;16.20;10.93;;;7.90;99.90;;;;;;5050019;28;20622;-68
2021/04/24 03:50:41;;;;;;;21.40;12.40;;;7.80;99.90;;;;;;5068131;28;20192;-68
2021/04/24 03:53:07;;;;;;;19.77;11.00;;;7.80;99.90;;;;;;5068145;28;20163;-68
2021/04/24 03:55:33;;;;;;;18.33;10.27;;;7.80;99.90;;;;;;5065752;28;20157;-68
2021/04/24 03:58:00;;;;;;;17.33;10.80;;;7.80;99.90;;;;;;5068038;28;20161;-67
2021/04/24 04:00:28;;;;;;;17.47;10.83;;;7.90;99.90;;;;;;5068073;28;20157;-68
2021/04/24 04:02:59;;;;;;;18.00;11.73;;;7.80;99.90;;;;;;5067355;28;20201;-68
2021/04/24 04:05:28;;;;;;;19.37;11.07;;;7.80;99.90;;;;;;5065613;28;20172;-68
2021/04/24 04:07:57;;;;;;;19.77;11.43;;;7.80;99.90;;;;;;5068006;28;20171;-68
2021/04/24 04:10:24;;;;;;;18.83;11.73;;;7.80;99.90;;;;;;5067960;28;20192;-68
2021/04/24 04:12:50;;;;;;;16.47;10.83;;;7.80;99.90;;;;;;5068126;28;20180;-68
2021/04/24 04:15:18;;;;;;;22.20;10.63;;;7.80;99.90;;;;;;5065809;28;20398;-68
2021/04/24 04:18:08;;;;;;;25.83;11.33;;;7.80;99.90;;;;;;5067419;28;20157;-68
2021/04/24 04:20:37;;;;;;;21.73;10.10;;;7.80;99.90;;;;;;5067855;28;20172;-68
2021/04/24 04:23:03;;;;;;;21.77;11.20;;;7.70;99.90;;;;;;5067691;28;20190;-68
2021/04/24 04:25:29;;;;;;;20.00;10.83;;;7.70;99.90;;;;;;5065237;28;20184;-68
2021/04/24 04:27:54;;;;;;;17.83;10.63;;;7.70;99.90;;;;;;5067824;28;20188;-68
2021/04/24 04:30:22;;;;;;;19.20;10.83;;;7.70;99.90;;;;;;5071370;28;20267;-67
2021/04/24 04:32:48;;;;;;;19.90;10.53;;;7.80;99.90;;;;;;5067398;28;20207;-68
2021/04/24 04:35:15;;;;;;;17.20;10.73;;;7.70;99.90;;;;;;5065672;28;20529;-68
2021/04/24 04:37:41;;;;;;;17.80;11.40;;;7.60;99.90;;;;;;5067256;28;20155;-68
2021/04/24 04:40:09;;;;;;;21.60;10.67;;;7.60;99.90;;;;;;5067372;28;20614;-68
2021/04/24 04:42:36;;;;;;;17.53;9.83;;;7.60;99.90;;;;;;5067376;28;20654;-68
2021/04/24 04:45:02;;;;;;;23.43;10.23;;;7.60;99.90;;;;;;5066896;28;20164;-68
2021/04/24 04:47:28;;;;;;;21.90;10.50;;;7.50;99.90;;;;;;5065083;28;20192;-68
2021/04/24 04:49:54;;;;;;;24.13;10.07;;;7.50;99.90;;;;;;5067469;28;20165;-68
2021/04/24 04:52:20;;;;;;;19.03;10.57;;;7.50;99.90;;;;;;5066830;28;20200;-68
2021/04/24 04:54:45;;;;;;;17.20;9.90;;;7.60;99.90;;;;;;5067179;28;20220;-67
2021/04/24 04:57:11;;;;;;;18.20;9.87;;;7.60;99.90;;;;;;5064458;28;20183;-67
2021/04/24 04:59:37;;;;;;;14.97;10.30;;;7.60;99.90;;;;;;5067153;28;20528;-67
2021/04/24 05:02:02;;;;;;;18.87;11.23;;;7.60;99.90;;;;;;5048979;28;20240;-67
2021/04/24 05:04:28;;;;;;;19.63;10.50;;;7.70;99.90;;;;;;5066663;28;20634;-67
2021/04/24 05:06:53;;;;;;;15.77;10.90;;;7.70;99.90;;;;;;5064355;28;20168;-67
2021/04/24 05:09:22;;;;;;;20.33;10.77;;;7.70;99.90;;;;;;5048857;28;20267;-68
2021/04/24 05:11:49;;;;;;;24.47;10.30;;;7.70;99.90;;;;;;5066522;28;20195;-67
2021/04/24 05:14:14;;;;;;;16.90;10.67;;;7.70;99.90;;;;;;5048295;28;20173;-67
2021/04/24 05:16:40;;;;;;;18.10;10.90;;;7.80;99.90;;;;;;5063680;28;20161;-67
2021/04/24 05:19:05;;;;;;;17.60;10.80;;;7.80;99.90;;;;;;5066419;28;20175;-67
2021/04/24 05:21:31;;;;;;;19.40;11.88;;;7.80;99.90;;;;;;5066265;28;20415;-68
2021/04/24 05:23:57;;;;;;;20.23;10.90;;;7.90;99.90;;;;;;5066686;28;20161;-67
2021/04/24 05:26:23;;;;;;;19.17;11.37;;;7.90;99.90;;;;;;5064069;28;20638;-68
2021/04/24 05:28:49;;;;;;;26.27;11.60;;;7.80;99.90;;;;;;5066663;28;20176;-67
2021/04/24 05:31:15;;;;;;;19.45;11.52;;;7.90;99.90;;;;;;5064894;28;20450;-67
2021/04/24 05:33:40;;;;;;;16.20;10.77;;;8.20;99.90;;;;;;5066188;28;20220;-68
2021/04/24 05:36:10;;;;;;;16.97;10.43;;;8.10;99.90;;;;;;5063728;28;20167;-67
2021/04/24 05:38:36;;;;;;;20.37;11.33;;;8.10;99.90;;;;;;5066252;28;20157;-67
2021/04/24 05:41:02;;;;;;;28.87;10.43;;;8.10;99.90;;;;;;5048161;28;20184;-68
2021/04/24 05:43:28;;;;;;;18.43;10.30;;;8.10;99.90;;;;;;5066258;28;20167;-67
2021/04/24 05:45:54;;;;;;;19.83;10.83;;;8.00;99.90;;;;;;5045741;28;20168;-68
2021/04/24 05:48:19;;;;;;;23.57;11.60;;;8.10;99.90;;;;;;5065482;28;20169;-67
2021/04/24 05:50:45;;;;;;;27.80;10.80;;;8.10;99.90;;;;;;5047872;28;20681;-67
2021/04/24 05:53:10;;;;;;;22.33;10.40;;;8.10;99.90;;;;;;5065423;28;20165;-68
2021/04/24 05:55:36;;;;;;;23.00;11.23;;;8.20;99.90;;;;;;5063308;28;20172;-68
2021/04/24 05:58:03;;;;;;;17.23;10.03;;;8.10;99.90;;;;;;5065465;28;20161;-67
2021/04/24 06:00:29;;;;;;;21.53;10.83;;;8.20;99.90;;;;;;5065944;28;20243;-67
2021/04/24 06:02:54;;;;;;;32.40;10.57;;;8.20;99.90;;;;;;5065498;28;20660;-67
2021/04/24 06:05:20;;;;;;;17.77;10.00;;;8.30;99.90;;;;;;5063278;28;20157;-68
2021/04/24 06:07:46;;;;;;;27.93;10.30;;;8.20;99.90;;;;;;5065932;28;20222;-67
2021/04/24 06:10:17;;;;;;;22.17;11.37;;;8.30;99.90;;;;;;5065488;28;20161;-68
2021/04/24 06:12:47;;;;;;;18.30;10.93;;;8.40;99.90;;;;;;5065614;28;20255;-68
2021/04/24 06:15:14;;;;;;;17.73;10.83;;;8.40;99.90;;;;;;5063730;28;20157;-67
2021/04/24 06:17:41;;;;;;;22.30;8.80;;;8.40;99.90;;;;;;5046742;28;20156;-68
2021/04/24 06:20:08;;;;;;;23.47;8.93;;;8.50;99.90;;;;;;5065409;28;20157;-68
2021/04/24 06:22:34;;;;;;;23.23;8.70;;;8.50;99.90;;;;;;5065560;28;20698;-67
2021/04/24 06:25:00;;;;;;;22.10;8.47;;;8.50;99.90;;;;;;5065300;28;20172;-67
2021/04/24 06:27:25;;;;;;;16.07;8.77;;;8.40;99.90;;;;;;5063635;28;20168;-68
2021/04/24 06:29:52;;;;;;;23.90;9.20;;;8.50;99.90;;;;;;5047590;28;20157;-68
2021/04/24 06:32:18;;;;;;;15.90;8.43;;;8.40;99.90;;;;;;5064808;28;20208;-67
2021/04/24 06:34:43;;;;;;;16.77;10.00;;;8.50;99.90;;;;;;5065151;28;20171;-68
2021/04/24 06:37:09;;;;;;;19.93;9.00;;;8.60;99.90;;;;;;5062541;28;20165;-67
2021/04/24 06:39:35;;;;;;;17.50;9.60;;;8.60;99.90;;;;;;5065327;28;20184;-67
2021/04/24 06:42:01;;;;;;;24.13;8.93;;;8.60;99.90;;;;;;5064720;28;20180;-68
2021/04/24 06:44:27;;;;;;;18.30;10.57;;;8.70;99.90;;;;;;5065373;28;20165;-67
2021/04/24 06:46:53;;;;;;;18.93;9.17;;;8.90;99.90;;;;;;5062613;28;20180;-68
2021/04/24 06:49:18;;;;;;;13.10;9.17;;;9.10;99.90;;;;;;5064825;28;20176;-67
2021/04/24 06:51:44;;;;;;;20.10;9.77;;;9.20;99.90;;;;;;5064744;28;20242;-67
2021/04/24 06:54:10;;;;;;;19.97;9.53;;;9.30;99.90;;;;;;5047111;28;20164;-67
2021/04/24 06:56:36;;;;;;;16.10;10.10;;;9.20;99.90;;;;;;5062651;28;20165;-68
2021/04/24 06:59:02;;;;;;;18.60;9.23;;;9.40;99.90;;;;;;5065014;28;20191;-68
2021/04/24 07:01:27;;;;;;;16.33;9.47;;;9.50;99.90;;;;;;5064837;28;20168;-67
2021/04/24 07:03:53;;;;;;;19.90;9.43;;;9.70;99.90;;;;;;5064740;28;20173;-68
2021/04/24 07:06:19;;;;;;;14.10;9.47;;;9.70;99.90;;;;;;5062403;28;20194;-68
2021/04/24 07:08:45;;;;;;;14.87;9.03;;;9.80;99.90;;;;;;5064822;28;20294;-68
2021/04/24 07:11:10;;;;;;;18.30;9.00;;;10.00;99.90;;;;;;5064534;28;20206;-68
2021/04/24 07:13:37;;;;;;;18.30;9.93;;;10.10;99.90;;;;;;5064815;28;20188;-68
2021/04/24 07:16:10;;;;;;;18.07;9.47;;;10.20;99.90;;;;;;5044023;28;20172;-67
2021/04/24 07:18:36;;;;;;;19.30;9.50;;;10.30;99.90;;;;;;5064114;28;20169;-67
2021/04/24 07:21:02;;;;;;;14.90;9.20;;;10.30;99.90;;;;;;5064493;28;20185;-67
2021/04/24 07:23:27;;;;;;;18.00;8.43;;;10.30;99.90;;;;;;5064776;28;20169;-67
2021/04/24 07:25:53;;;;;;;14.60;8.47;;;10.40;99.90;;;;;;5062032;28;20243;-67
2021/04/24 07:28:19;;;;;;;20.07;8.33;;;10.40;99.90;;;;;;5064723;28;20255;-67
2021/04/24 07:30:45;;;;;;;18.13;8.47;;;10.50;99.90;;;;;;5064038;28;20212;-68
2021/04/24 07:33:11;;;;;;;15.73;7.83;;;10.60;99.90;;;;;;5046285;28;20165;-68
2021/04/24 07:35:37;;;;;;;16.33;8.07;;;10.50;99.90;;;;;;5062007;28;20168;-68
2021/04/24 07:38:03;;;;;;;16.40;8.93;;;10.40;99.90;;;;;;5065079;28;20164;-68
2021/04/24 07:40:29;;;;;;;14.47;8.63;;;10.60;99.90;;;;;;5050444;28;20176;-68
2021/04/24 07:42:54;;;;;;;13.37;7.40;;;10.70;99.90;;;;;;5067972;28;20173;-68
2021/04/24 07:45:20;;;;;;;12.57;7.30;;;10.70;99.90;;;;;;5065525;28;20161;-68
2021/04/24 07:47:48;;;;;;;16.40;7.80;;;10.90;99.90;;;;;;5067968;28;20168;-67
2021/04/24 07:50:18;;;;;;;12.57;7.00;;;11.10;99.90;;;;;;5068027;28;20152;-67
2021/04/24 07:52:44;;;;;;;12.13;7.40;;;11.30;99.90;;;;;;5067296;28;20199;-67
2021/04/24 07:55:09;;;;;;;11.77;7.73;;;11.50;99.90;;;;;;5066108;28;20256;-67
2021/04/24 07:57:35;;;;;;;13.70;7.57;;;11.70;99.90;;;;;;5066735;28;20165;-68
2021/04/24 08:00:01;;;;;;;9.30;6.87;;;11.80;99.90;;;;;;5067416;28;20172;-68
2021/04/24 08:02:27;;;;;;;13.00;7.40;;;11.90;99.90;;;;;;5067583;28;20196;-68
2021/04/24 08:04:52;;;;;;;10.80;7.50;;;12.00;99.90;;;;;;5067364;28;20188;-68
2021/04/24 08:07:18;;;;;;;9.77;7.00;;;12.00;99.90;;;;;;5065063;28;20173;-67
2021/04/24 08:09:45;;;;;;;11.50;6.60;;;12.10;99.90;;;;;;5067491;28;20173;-68
2021/04/24 08:12:11;;;;;;;16.20;6.93;;;12.00;99.90;;;;;;5066199;28;20203;-68
2021/04/24 08:14:36;;;;;;;11.97;5.77;;;12.10;99.90;;;;;;5067537;28;20165;-68
2021/04/24 08:17:02;;;;;;;8.40;6.00;;;12.20;99.90;;;;;;5064891;28;20172;-68
2021/04/24 08:19:28;;;;;;;9.30;6.00;;;12.20;99.90;;;;;;5067618;28;20192;-67
2021/04/24 08:21:59;;;;;;;11.10;6.20;;;12.30;99.90;;;;;;5067373;28;20200;-68
2021/04/24 08:24:25;;;;;;;15.47;7.33;;;12.40;99.90;;;;;;5067660;28;20688;-68
2021/04/24 08:26:51;;;;;;;12.50;6.27;;;12.50;99.90;;;;;;5064540;28;20168;-68
2021/04/24 08:29:17;;;;;;;12.03;6.63;;;12.60;99.90;;;;;;5066729;28;20262;-67
2021/04/24 08:31:43;;;;;;;12.63;6.60;;;12.70;99.90;;;;;;5069504;28;20212;-68
2021/04/24 08:34:10;;;;;;;14.10;6.50;;;12.90;99.90;;;;;;5086821;28;20254;-68
2021/04/24 08:36:36;;;;;;;11.73;7.20;;;12.90;99.90;;;;;;5084776;28;20264;-68
2021/04/24 08:39:03;;;;;;;10.43;6.67;;;13.00;99.90;;;;;;5087070;28;20605;-68
2021/04/24 08:41:31;;;;;;;15.53;7.23;;;13.10;99.90;;;;;;5086969;28;20183;-68
2021/04/24 08:43:57;;;;;;;9.38;6.47;;;13.20;99.90;;;;;;5087289;28;20194;-68
2021/04/24 08:46:24;;;;;;;10.75;5.85;;;13.20;99.90;;;;;;5084647;28;20168;-68
2021/04/24 08:48:54;;;;;;;11.93;6.03;;;13.30;99.90;;;;;;5086787;28;20198;-68
2021/04/24 08:51:22;;;;;;;10.00;5.78;;;13.60;99.90;;;;;;5086685;28;20246;-68
2021/04/24 08:53:49;;;;;;;7.90;5.97;;;13.60;99.90;;;;;;5085817;28;20193;-67
2021/04/24 08:56:17;;;;;;;12.50;6.40;;;13.70;99.90;;;;;;5084077;28;20255;-67
2021/04/24 08:58:43;;;;;;;12.05;5.97;;;13.80;99.90;;;;;;5087044;28;20182;-67
2021/04/24 09:01:09;;;;;;;12.63;5.20;;;13.80;99.90;;;;;;5085291;28;20217;-68
2021/04/24 09:03:35;;;;;;;14.25;6.15;;;13.80;99.90;;;;;;5086371;28;20172;-67
2021/04/24 09:06:01;;;;;;;12.77;5.38;;;13.90;99.90;;;;;;5084055;28;20195;-67
2021/04/24 09:08:29;;;;;;;9.43;5.55;;;13.90;99.90;;;;;;5086786;28;20175;-68
2021/04/24 09:11:04;;;;;;;10.52;6.38;;;13.90;99.90;;;;;;5086488;28;20199;-67
2021/04/24 09:13:30;;;;;;;9.85;5.28;;;13.90;99.90;;;;;;5085259;28;20166;-67
2021/04/24 09:15:56;;;;;;;11.45;5.53;;;14.10;99.90;;;;;;5083513;28;20165;-68
2021/04/24 09:18:24;;;;;;;7.50;5.05;;;14.20;99.90;;;;;;5086066;28;20251;-67
2021/04/24 09:20:57;;;;;;;8.82;5.15;;;14.30;99.90;;;;;;5086447;28;20163;-67
2021/04/24 09:23:34;;;;;;;12.82;4.88;;;14.40;99.90;;;;;;5086545;28;20297;-68
2021/04/24 09:26:03;;;;;;;8.45;4.90;;;14.40;99.90;;;;;;5082331;28;20729;-67
2021/04/24 09:28:44;;;;;;;7.30;5.13;;;14.50;99.90;;;;;;5084952;28;20187;-68
2021/04/24 09:31:10;;;;;;;8.43;5.97;;;14.70;99.90;;;;;;5077722;28;20235;-67
2021/04/24 09:33:37;;;;;;;13.23;5.75;;;14.70;99.90;;;;;;5047553;28;20183;-68
2021/04/24 09:36:03;;;;;;;11.77;4.78;;;14.80;99.90;;;;;;5063719;28;20152;-68
2021/04/24 09:38:38;;;;;;;12.07;5.32;;;14.90;99.90;;;;;;5066187;28;20630;-68
2021/04/24 09:41:21;;;;;;;9.88;5.40;;;15.00;99.90;;;;;;5065807;28;20172;-67
2021/04/24 09:44:05;;;;;;;9.32;4.95;;;14.80;99.90;;;;;;5065728;28;20175;-68
2021/04/24 09:46:54;;;;;;;5.90;4.53;;;14.80;99.90;;;;;;5063520;28;20168;-68
2021/04/24 09:49:30;;;;;;;11.05;5.65;;;14.80;99.90;;;;;;5046654;28;20264;-68
2021/04/24 09:52:10;;;;;;;11.45;5.15;;;14.90;99.90;;;;;;5065697;28;20264;-68
2021/04/24 09:54:45;;;;;;;12.32;4.63;;;14.90;99.90;;;;;;5065991;28;20160;-67
2021/04/24 09:57:19;;;;;;;7.35;3.67;;;15.00;99.90;;;;;;5063081;28;20164;-68
2021/04/24 10:00:07;;;;;;;13.05;3.95;;;15.10;99.90;;;;;;5065691;28;20163;-68
2021/04/24 10:02:47;;;;;;;10.50;4.63;;;15.30;99.90;;;;;;5064937;28;20680;-68
2021/04/24 10:05:16;;;;;;;6.00;4.07;;;15.50;99.90;;;;;;5045979;28;20236;-68
2021/04/24 10:07:52;;;;;;;9.25;5.22;;;15.60;99.90;;;;;;5065219;28;20161;-67
2021/04/24 10:10:44;;;;;;;11.80;4.97;;;15.70;99.90;;;;;;5065234;28;20656;-67
2021/04/24 10:13:10;;;;;;;7.85;4.55;;;15.80;99.90;;;;;;5060324;28;20279;-68
2021/04/24 10:15:41;;;;;;;9.40;5.32;;;15.80;99.90;;;;;;5061467;28;20160;-67
2021/04/24 10:18:09;;;;;;;10.18;5.68;;;16.00;99.90;;;;;;5046819;28;20165;-67
2021/04/24 10:20:37;;;;;;;10.48;5.30;;;16.00;99.90;;;;;;5047301;28;20168;-68
2021/04/24 10:23:06;;;;;;;12.45;5.13;;;16.10;99.90;;;;;;5064997;28;20169;-68
2021/04/24 10:25:32;;;;;;;17.75;7.00;;;16.10;99.90;;;;;;5063021;28;20172;-69
2021/04/24 10:27:58;;;;;;;11.70;5.05;;;16.20;99.90;;;;;;5064977;28;20161;-68
2021/04/24 10:30:24;;;;;;;11.75;4.90;;;16.30;99.90;;;;;;5046849;28;20244;-68
2021/04/24 10:32:55;;;;;;;7.20;5.00;;;16.30;99.90;;;;;;5064117;28;20171;-68
2021/04/24 10:35:21;;;;;;;14.60;5.10;;;16.50;99.90;;;;;;5062407;28;20169;-69
2021/04/24 10:37:48;;;;;;;10.57;4.78;;;16.70;99.90;;;;;;5064880;28;20169;-68
2021/04/24 10:40:14;;;;;;;7.90;5.03;;;16.90;99.90;;;;;;5065110;28;20165;-68
2021/04/24 10:42:44;;;;;;;9.20;5.38;;;17.10;99.90;;;;;;5065210;28;20224;-68
2021/04/24 10:45:10;;;;;;;15.25;5.18;;;17.10;99.90;;;;;;5063866;28;20220;-68
2021/04/24 10:47:42;;;;;;;12.27;5.60;;;17.10;99.90;;;;;;5063984;28;20159;-68
2021/04/24 10:50:17;;;;;;;7.32;5.10;;;17.20;99.90;;;;;;5047135;28;20176;-68
2021/04/24 10:52:45;;;;;;;7.93;5.78;;;17.20;99.90;;;;;;5065019;28;20176;-68
2021/04/24 10:55:13;;;;;;;11.80;6.13;;;17.20;99.90;;;;;;5063323;28;20224;-69
2021/04/24 10:57:41;;;;;;;9.90;5.93;;;17.30;99.90;;;;;;5064373;28;20169;-68
2021/04/24 11:00:11;;;;;;;10.70;6.32;;;17.30;99.90;;;;;;5064415;28;20573;-68
2021/04/24 11:02:47;;;;;;;11.13;6.13;;;17.40;99.90;;;;;;5064170;28;20180;-68
2021/04/24 11:05:17;;;;;;;6.07;5.38;;;17.60;99.90;;;;;;5063192;28;20743;-68
2021/04/24 11:07:43;;;;;;;10.70;6.15;;;17.90;99.90;;;;;;5064543;28;20165;-68
2021/04/24 11:10:13;;;;;;;7.00;6.30;;;17.90;99.90;;;;;;5064833;28;20168;-68
2021/04/24 11:12:46;;;;;;;14.40;6.22;;;18.00;99.90;;;;;;5064625;28;20189;-68
2021/04/24 11:15:15;;;;;;;18.95;5.53;;;18.00;99.90;;;;;;5066000;28;20165;-68
2021/04/24 11:17:42;;;;;;;7.78;5.50;;;17.90;99.90;;;;;;5066924;28;20228;-68
2021/04/24 11:20:10;;;;;;;9.52;5.95;;;18.10;99.90;;;;;;5068465;28;20191;-68
2021/04/24 11:22:41;;;;;;;12.88;5.90;;;18.10;99.90;;;;;;5068340;28;20172;-68
2021/04/24 11:25:20;;;;;;;9.82;6.13;;;18.40;99.90;;;;;;5049634;28;20171;-67
2021/04/24 11:28:03;;;;;;;9.93;6.25;;;18.60;99.90;;;;;;5050575;28;20683;-67
2021/04/24 11:30:50;;;;;;;7.63;5.25;;;18.70;99.90;;;;;;5068413;28;20175;-67
2021/04/24 11:33:39;;;;;;;9.50;6.15;;;18.80;99.90;;;;;;5067955;28;20165;-67
2021/04/24 11:36:13;;;;;;;10.60;6.07;;;18.90;99.90;;;;;;5065476;28;20180;-67
2021/04/24 11:39:00;;;;;;;7.50;5.72;;;19.10;99.90;;;;;;5068411;28;20171;-67
2021/04/24 11:41:29;;;;;;;8.52;5.68;;;19.40;99.90;;;;;;5067817;28;20176;-68
2021/04/24 11:43:55;;;;;;;7.50;6.35;;;19.50;99.90;;;;;;5050374;28;20264;-67
2021/04/24 11:46:34;;;;;;;9.50;6.22;;;19.60;99.90;;;;;;5065721;28;20187;-68
2021/04/24 11:49:22;;;;;;;9.60;6.07;;;19.50;99.90;;;;;;5067864;28;20177;-68
2021/04/24 11:51:53;;;;;;;10.80;6.03;;;19.50;99.90;;;;;;5067724;28;20196;-68
2021/04/24 11:54:22;;;;;;;14.50;5.72;;;19.30;99.90;;;;;;5050134;28;20232;-68
2021/04/24 11:56:49;;;;;;;11.60;5.60;;;19.40;99.90;;;;;;5065334;28;20199;-68
2021/04/24 11:59:22;;;;;;;8.55;5.05;;;19.70;99.90;;;;;;5067755;28;20171;-70
2021/04/24 12:01:48;;;;;;;14.35;6.22;;;20.00;99.90;;;;;;5067596;28;20255;-68
2021/04/24 12:04:31;;;;;;;6.97;6.07;;;19.70;99.90;;;;;;5067089;28;20545;-68
2021/04/24 12:07:12;;;;;;;12.60;5.63;;;19.60;99.90;;;;;;5065235;28;20173;-68
2021/04/24 12:10:01;;;;;;;14.85;6.10;;;19.50;99.90;;;;;;5067703;28;20165;-68
2021/04/24 12:12:38;;;;;;;8.05;6.05;;;19.60;99.90;;;;;;5067876;28;20192;-68
2021/04/24 12:15:17;;;;;;;12.40;6.60;;;19.80;99.90;;;;;;5066755;28;20412;-68
2021/04/24 12:17:53;;;;;;;8.57;5.82;;;20.00;99.90;;;;;;5067166;28;20165;-68
2021/04/24 12:20:23;;;;;;;8.90;6.15;;;19.70;99.90;;;;;;5067698;28;20164;-68
2021/04/24 12:22:50;;;;;;;9.18;5.90;;;19.70;99.90;;;;;;5067603;28;20180;-68
2021/04/24 12:25:17;;;;;;;10.13;6.45;;;19.70;99.90;;;;;;5064740;28;20161;-68
2021/04/24 12:27:49;;;;;;;10.13;6.03;;;19.80;99.90;;;;;;5066153;28;20239;-69
2021/04/24 12:30:41;;;;;;;8.25;5.70;;;20.10;99.90;;;;;;5067186;28;20190;-69
2021/04/24 12:33:08;;;;;;;11.50;5.95;;;20.00;99.90;;;;;;5066749;28;20208;-69
2021/04/24 12:35:36;;;;;;;8.10;6.18;;;19.80;99.90;;;;;;5064924;28;20161;-69
2021/04/24 12:38:12;;;;;;;20.85;6.20;;;20.00;99.90;;;;;;5067373;28;20165;-69
2021/04/24 12:40:44;;;;;;;8.75;5.63;;;20.30;99.90;;;;;;5067281;28;20664;-68
2021/04/24 12:43:16;;;;;;;11.43;6.25;;;20.60;99.90;;;;;;5065370;28;20239;-68
2021/04/24 12:45:45;;;;;;;11.43;6.72;;;20.80;99.90;;;;;;5061293;28;20173;-68